Flight Track Log - Related Links

Times and Time Zones

All times are in EDT time to prevent confusion due to time zone crossing. See the SWA303 flight status page for this flight to view local times or setup timezone preferences in your user account.

Time Position Orientation Groundspeed Altitude Reporting Facility
EDT Latitude Longitude Course Direction KTS MPH feet Rate Location/Type
Thu 02:30:19 PM 39.8778 -104.5969 81° East 185 213 6,700  Level Denver Center
Thu 02:31:21 PM 39.8861 -104.5244 81° East 204 235 8,700 1,597 Climbing Denver Center
Thu 02:32:23 PM 39.8958 -104.4311 82° East 257 296 10,000 1,935 Climbing Denver Center
Thu 02:33:25 PM 39.8967 -104.3031 89° East 327 376 12,700 2,603 Climbing Denver Center
Thu 02:34:39 PM 39.8997 -104.1817 88° East 337 388 15,900 2,603 Climbing Denver Center
Thu 02:35:41 PM 39.8944 -104.0153 92° East 367 422 18,600 2,516 Climbing Denver Center
Thu 02:36:43 PM 39.8883 -103.8656 93° East 392 451 21,100 2,129 Climbing Denver Center
Thu 02:37:45 PM 39.8850 -103.7133 92° East 409 471 23,000 1,984 Climbing Denver Center
Thu 02:38:47 PM 39.9019 -103.5703 81° East 421 484 25,200 1,902 Climbing Denver Center
Thu 02:39:48 PM 39.9169 -103.4386 82° East 424 488 26,900 1,984 Climbing Denver Center
Thu 02:40:51 PM 39.9386 -103.2414 82° East 431 496 29,300 1,920 Climbing Denver Center
Thu 02:41:53 PM 39.9556 -103.0919 82° East 435 501 30,900 1,742 Climbing Denver Center
Thu 02:42:55 PM 39.9747 -102.9178 82° East 436 502 32,900 1,887 Climbing Denver Center
Thu 02:43:57 PM 39.9900 -102.7728 82° East 426 490 34,800 1,016 Climbing Denver Center
Thu 02:44:59 PM 40.0078 -102.6042 82° East 421 484 35,000 484 Climbing Denver Center
Thu 02:46:01 PM 40.0236 -102.4586 82° East 423 487 35,800 871 Climbing Denver Center
Thu 02:47:03 PM 40.0431 -102.2836 82° East 437 503 36,800 585 Climbing Denver Center
Thu 02:48:04 PM 40.0567 -102.1311 83° East 443 510 37,000 98 Climbing Denver Center
Thu 02:49:06 PM 40.0731 -101.9778 82° East 445 512 37,000  Level Denver Center
Thu 02:50:08 PM 40.0911 -101.7978 82° East 447 514 37,000  Level Denver Center
Thu 02:51:10 PM 40.1067 -101.6431 82° East 449 517 37,000  Level Denver Center
Thu 02:52:12 PM 40.1239 -101.4606 83° East 453 521 37,000  Level Denver Center
Thu 02:53:14 PM 40.1386 -101.3044 83° East 454 522 37,000  Level Denver Center
Thu 02:54:16 PM 40.1553 -101.1239 83° East 451 519 37,000  Level Denver Center
Thu 02:55:18 PM 40.1692 -100.9725 83° East 442 509 37,000  Level Denver Center
Thu 02:56:20 PM 40.1853 -100.7958 83° East 441 507 37,000  Level Denver Center
Thu 02:57:22 PM 40.1989 -100.6439 83° East 440 506 37,000  Level Denver Center
Thu 02:58:24 PM 40.2056 -100.4681 87° East 437 503 37,000  Level Denver Center
Thu 02:59:26 PM 40.2083 -100.3142 89° East 441 507 37,000  Level Denver Center
Thu 03:00:28 PM 40.2111 -100.1350 89° East 444 511 37,000  Level Denver Center
Thu 03:01:42 PM 40.2133 -99.9831 89° East 440 506 37,000  Level Denver Center
Thu 03:02:43 PM 40.2147 -99.8236 89° East 442 509 37,000 221 Level Denver Center
Thu 03:03:58 PM 40.2172 -99.6294 89° East 445 512 37,500 613 Climbing Denver Center
Thu 03:05:00 PM 40.2192 -99.4031 89° East 448 516 38,400 677 Climbing Denver Center
Thu 03:06:02 PM 40.2200 -99.2383 90° East 453 521 38,900 290 Climbing Denver Center
Thu 03:07:04 PM 40.2208 -99.0708 90° East 462 532 39,000 48 Climbing Denver Center
Thu 03:08:06 PM 40.2219 -98.9031 89° East 462 532 39,000  Level Denver Center
Thu 03:09:10 PM 40.2228 -98.7017 90° East 465 535 39,000  Level Minneapolis Center
Thu 03:10:12 PM 40.2228 -98.5350 90° East 463 533 39,000  Level Minneapolis Center
Thu 03:11:14 PM 40.2214 -98.3672 91° East 462 532 39,000  Level Minneapolis Center
Thu 03:12:16 PM 40.2219 -98.2008 90° East 461 531 39,000  Level Minneapolis Center
Thu 03:13:18 PM 40.2214 -98.0347 90° East 459 528 39,000  Level Minneapolis Center
Thu 03:14:20 PM 40.2206 -97.8686 90° East 459 528 39,000  Level Minneapolis Center
Thu 03:15:22 PM 40.2192 -97.6692 90° East 458 527 39,000  Level Minneapolis Center
Thu 03:16:24 PM 40.2183 -97.5019 90° East 460 529 39,000  Level Minneapolis Center
Thu 03:17:26 PM 40.2164 -97.3233 91° East 461 531 39,000  Level Minneapolis Center
Thu 03:18:28 PM 40.2153 -97.1589 90° East 456 525 39,000  Level Minneapolis Center
Thu 03:19:30 PM 40.2147 -96.9972 90° East 449 517 39,000  Level Minneapolis Center
Thu 03:20:32 PM 40.2167 -96.8356 89° East 448 516 39,000  Level Minneapolis Center
Thu 03:21:33 PM 40.2181 -96.6753 89° East 445 512 39,000  Level Minneapolis Center
Thu 03:22:35 PM 40.2183 -96.5139 90° East 445 512 39,000  Level Minneapolis Center
Thu 03:23:37 PM 40.2189 -96.3222 90° East 443 510 39,000  Level Minneapolis Center
Thu 03:24:39 PM 40.2203 -96.1619 89° East 442 509 39,000  Level Minneapolis Center
Thu 03:25:41 PM 40.2194 -96.0017 90° East 443 510 39,000  Level Minneapolis Center
Thu 03:26:43 PM 40.2192 -95.8403 90° East 446 513 39,000  Level Minneapolis Center
Thu 03:27:45 PM 40.2194 -95.6817 90° East 441 507 39,000  Level Minneapolis Center
Thu 03:28:47 PM 40.2192 -95.5225 90° East 439 505 39,000  Level Minneapolis Center
Thu 03:29:49 PM 40.2178 -95.3322 90° East 439 505 39,000  Level Minneapolis Center
Thu 03:30:51 PM 40.2167 -95.1728 90° East 439 505 39,000  Level Minneapolis Center
Thu 03:31:53 PM 40.2156 -95.0139 90° East 439 505 39,000  Level Minneapolis Center
Thu 03:32:55 PM 40.2147 -94.8550 90° East 439 505 39,000  Level Minneapolis Center
Thu 03:33:57 PM 40.2128 -94.6975 91° East 436 502 39,000  Level Minneapolis Center
Thu 03:34:59 PM 40.2103 -94.5183 91° East 435 501 39,000  Level Minneapolis Center
Thu 03:36:11 PM 40.2069 -94.3361 91° East 430 495 39,000  Level Kansas City Center
Thu 03:37:13 PM 40.2042 -94.1833 91° East 434 499 39,000  Level Kansas City Center
Thu 03:38:15 PM 40.2000 -94.0164 92° East 437 503 39,000  Level Kansas City Center
Thu 03:39:17 PM 40.1967 -93.8597 92° East 436 502 39,000  Level Kansas City Center
Thu 03:40:19 PM 40.1933 -93.7031 92° East 435 501 39,000  Level Kansas City Center
Thu 03:41:21 PM 40.1906 -93.5144 91° East 436 502 39,000  Level Kansas City Center
Thu 03:42:23 PM 40.1864 -93.3592 92° East 434 499 39,000  Level Kansas City Center
Thu 03:43:25 PM 40.1853 -93.2039 90° East 431 496 39,000  Level Kansas City Center
Thu 03:44:27 PM 40.1794 -93.0236 92° East 432 497 39,000  Level Kansas City Center
Thu 03:45:29 PM 40.1753 -92.8767 92° East 426 490 39,000  Level Kansas City Center
Thu 03:46:32 PM 40.1703 -92.7247 92° East 433 498 39,000  Level Kansas City Center
Thu 03:47:34 PM 40.1647 -92.5469 92° East 436 502 39,000  Level Kansas City Center
Thu 03:48:36 PM 40.1625 -92.3958 91° East 435 501 39,000  Level Kansas City Center
Thu 03:49:38 PM 40.1564 -92.2153 92° East 439 505 39,000  Level Kansas City Center
Thu 03:50:40 PM 40.1508 -92.0597 93° East 435 501 39,000  Level Kansas City Center
Thu 03:51:42 PM 40.1456 -91.9031 92° East 436 502 39,000  Level Kansas City Center
Thu 03:52:44 PM 40.1461 -91.7456 90° East 437 503 39,000  Level Kansas City Center
Thu 03:53:46 PM 40.1533 -91.5892 86° East 436 502 39,000  Level Kansas City Center
Thu 03:54:48 PM 40.1600 -91.3983 87° East 441 507 39,000  Level Kansas City Center
Thu 03:55:50 PM 40.1644 -91.2386 88° East 442 509 39,000  Level Kansas City Center
Thu 03:56:52 PM 40.1700 -91.0778 87° East 446 513 39,000  Level Kansas City Center
Thu 03:57:54 PM 40.1736 -90.9225 88° East 448 516 39,000  Level Kansas City Center
Thu 03:58:56 PM 40.1792 -90.7264 88° East 451 519 39,000  Level Kansas City Center
Thu 03:59:55 PM 40.1825 -90.5644 88° East 449 517 39,000  Level Chicago Center
Thu 04:00:57 PM 40.1861 -90.3989 88° East 457 526 39,000  Level Chicago Center
Thu 04:01:59 PM 40.1900 -90.2336 88° East 458 527 39,000  Level Chicago Center
Thu 04:03:01 PM 40.1942 -90.0672 88° East 461 531 39,000  Level Chicago Center
Thu 04:04:03 PM 40.1969 -89.9022 89° East 460 529 39,000  Level Chicago Center
Thu 04:05:05 PM 40.2000 -89.7047 89° East 459 528 39,000  Level Chicago Center
Thu 04:06:07 PM 40.2025 -89.5425 89° East 453 521 39,000  Level Chicago Center
Thu 04:07:10 PM 40.2061 -89.3800 88° East 451 519 39,000  Level Chicago Center
Thu 04:08:12 PM 40.2075 -89.2175 89° East 449 517 39,000  Level Chicago Center
Thu 04:09:14 PM 40.2008 -89.0558 93° East 449 517 39,000  Level Chicago Center
Thu 04:10:16 PM 40.1806 -88.8972 99° East 444 511 39,000  Level Chicago Center
Thu 04:11:18 PM 40.1569 -88.7036 99° East 449 517 39,000  Level Chicago Center
Thu 04:12:20 PM 40.1386 -88.5436 98° East 446 513 39,000  Level Chicago Center
Thu 04:13:25 PM 40.1206 -88.3822 98° East 446 513 39,000  Level Kansas City Center
Thu 04:14:27 PM 40.1203 -88.2197 90° East 450 518 39,000  Level Kansas City Center
Thu 04:15:26 PM 40.1217 -88.0619 89° East 449 517 39,000  Level Chicago Center
Thu 04:16:28 PM 40.1261 -87.8647 88° East 452 520 39,000  Level Chicago Center
Thu 04:17:30 PM 40.1278 -87.7003 89° East 455 524 39,000  Level Chicago Center
Thu 04:18:32 PM 40.1308 -87.5317 89° East 461 531 39,000  Level Chicago Center
Thu 04:19:35 PM 40.1319 -87.3650 89° East 461 531 39,000  Level Chicago Center
Thu 04:20:37 PM 40.1350 -87.1983 89° East 460 529 39,000  Level Chicago Center
Thu 04:21:39 PM 40.1350 -86.9986 90° East 460 529 39,000  Level Chicago Center
Thu 04:22:41 PM 40.1367 -86.8308 89° East 462 532 39,000  Level Chicago Center
Thu 04:23:43 PM 40.1367 -86.6600 90° East 468 539 39,000  Level Chicago Center
Thu 04:24:45 PM 40.1378 -86.4892 89° East 469 540 39,000  Level Chicago Center
Thu 04:25:47 PM 40.1394 -86.3189 89° East 466 536 39,000  Level Chicago Center
Thu 04:26:49 PM 40.1389 -86.1475 90° East 468 539 39,000  Level Chicago Center
Thu 04:27:51 PM 40.1383 -85.9767 90° East 467 537 39,000  Level Chicago Center
Thu 04:28:53 PM 40.1378 -85.7717 90° East 469 540 39,000  Level Chicago Center
Thu 04:29:55 PM 40.1381 -85.6028 90° East 466 536 39,000  Level Chicago Center
Thu 04:30:57 PM 40.1364 -85.4325 91° East 469 540 39,000  Level Chicago Center
Thu 04:31:59 PM 40.1381 -85.2628 89° East 469 540 39,000  Level Chicago Center
Thu 04:33:01 PM 40.1361 -85.0939 91° East 467 537 39,000  Level Chicago Center
Thu 04:34:06 PM 40.1311 -84.8881 92° East 470 541 39,000  Level Indianapolis Center
Thu 04:35:08 PM 40.1286 -84.7317 91° East 469 540 39,000  Level Indianapolis Center
Thu 04:36:11 PM 40.1272 -84.5581 91° East 474 545 39,000  Level Indianapolis Center
Thu 04:37:13 PM 40.1253 -84.3547 91° East 475 547 39,000  Level Indianapolis Center
Thu 04:38:15 PM 40.1214 -84.1792 92° East 478 550 39,000  Level Indianapolis Center
Thu 04:39:17 PM 40.1181 -84.0019 91° East 482 555 39,000  Level Indianapolis Center
Thu 04:40:19 PM 40.1147 -83.8256 91° East 479 551 39,000  Level Indianapolis Center
Thu 04:41:21 PM 40.1106 -83.6486 92° East 480 552 39,000  Level Indianapolis Center
Thu 04:42:23 PM 40.1072 -83.4722 91° East 477 549 39,000  Level Indianapolis Center
Thu 04:43:25 PM 40.1033 -83.2950 92° East 478 550 39,000  Level Indianapolis Center
Thu 04:44:27 PM 40.0989 -83.1192 92° East 476 548 39,000  Level Indianapolis Center
Thu 04:45:29 PM 40.0944 -82.9444 92° East 476 548 39,000  Level Indianapolis Center
Thu 04:46:31 PM 40.0894 -82.7700 92° East 476 548 39,000  Level Indianapolis Center
Thu 04:47:33 PM 40.0839 -82.5681 92° East 472 543 39,000  Level Indianapolis Center
Thu 04:48:35 PM 40.0772 -82.3950 93° East 471 542 39,000  Level Indianapolis Center
Thu 04:49:37 PM 40.0722 -82.2233 92° East 469 540 39,000  Level Indianapolis Center
Thu 04:50:39 PM 40.0664 -82.0492 92° East 474 545 39,000  Level Indianapolis Center
Thu 04:51:41 PM 40.0600 -81.8761 93° East 475 547 39,000  Level Indianapolis Center
Thu 04:52:44 PM 40.0533 -81.7053 93° East 481 554 39,000  Level Indianapolis Center
Thu 04:53:45 PM 40.0453 -81.4997 93° East 484 557 39,000  Level Indianapolis Center
Thu 04:54:47 PM 40.0386 -81.3244 93° East 484 557 39,000  Level Indianapolis Center
Thu 04:55:50 PM 40.0222 -81.1517 97° East 483 556 39,000  Level Indianapolis Center
Thu 04:56:22 PM 40.0036 -81.0708 107° East 477 549 39,000 -65 Level Cleveland Center
Thu 04:57:22 PM 39.9519 -80.9108 113° Southeast 471 542 38,900 -900 Descending Cleveland Center
Thu 04:58:22 PM 39.9003 -80.7536 113° Southeast 471 542 37,200 -2,550 Descending Cleveland Center
Thu 04:59:22 PM 39.8525 -80.5939 111° Southeast 471 542 33,800 -2,400 Descending Cleveland Center
Thu 05:00:22 PM 39.7981 -80.4344 114° Southeast 477 549 32,400 -1,250 Descending Cleveland Center
Thu 05:01:22 PM 39.7458 -80.2725 113° Southeast 483 556 31,300 -995 Descending Cleveland Center
Thu 05:03:41 PM 39.6203 -79.8939 113° Southeast 478 550 29,100 -960 Descending Washington Center
Thu 05:04:42 PM 39.5731 -79.7539 114° Southeast 473 544 28,100 -992 Descending Washington Center
Thu 05:05:42 PM 39.5242 -79.6003 112° Southeast 467 537 27,100 -545 Descending Washington Center
Thu 05:06:43 PM 39.4853 -79.4450 108° East 461 531 27,000 -942 Descending Washington Center
Thu 05:07:43 PM 39.4589 -79.2903 102° East 454 522 25,200 -1,932 Descending Washington Center
Thu 05:08:41 PM 39.4264 -79.1219 104° East 441 507 23,200 -2,034 Descending Washington Center
Thu 05:09:41 PM 39.4014 -78.9811 103° East 422 486 21,200 -2,000 Descending Washington Center
Thu 05:10:41 PM 39.3739 -78.8403 104° East 410 472 19,200 -1,934 Descending Washington Center
Thu 05:11:42 PM 39.3506 -78.7078 103° East 397 457 17,300 -1,884 Descending Washington Center
Thu 05:12:42 PM 39.3267 -78.5806 104° East 378 435 15,400 -1,934 Descending Washington Center
Thu 05:13:43 PM 39.3047 -78.4536 103° East 372 428 13,400 -2,017 Descending Washington Center
Thu 05:14:41 PM 39.2678 -78.3342 112° Southeast 359 413 11,400 -1,373 Descending Washington Center
Thu 05:15:41 PM 39.1858 -78.2694 149° Southeast 329 379 10,700 -738 Descending Washington Center
Thu 05:16:43 PM 39.1100 -78.2078 148° Southeast 329 379 9,900 -1,131 Descending Washington Center
Thu 05:17:43 PM 39.0364 -78.1492 148° Southeast 324 373 8,400 -1,525 Descending Washington Center
Thu 05:18:41 PM 38.9581 -78.1008 154° Southeast 312 359 6,900 -1,412 Descending Washington Center
Thu 05:19:42 PM 38.8819 -78.0583 157° South 302 348 5,600 -934 Descending Washington Center
Thu 05:20:43 PM 38.8075 -78.0211 159° South 296 341 5,000 -295 Descending Washington Center
Thu 05:21:44 PM 38.7397 -77.9792 154° Southeast 284 327 5,000  Level Washington Center
Thu 05:24:06 PM 38.6667 -77.7500 112° Southeast 265 305 5,000  Level Potomac TRACON
Thu 05:25:06 PM 38.6500 -77.6667 104° East 252 290 5,000 -250 Level Potomac TRACON
Thu 05:26:06 PM 38.6667 -77.5833 76° East 242 278 4,500 -550 Descending Potomac TRACON
Thu 05:27:06 PM 38.7000 -77.5167 57° Northeast 235 270 3,900 -744 Descending Potomac TRACON
Thu 05:28:07 PM 38.7500 -77.4833 27° Northeast 221 254 3,000 -744 Descending Potomac TRACON
Thu 05:29:07 PM 38.8000 -77.4667 15° North 187 215 2,400 -550 Descending Potomac TRACON
Thu 05:30:07 PM 38.8500 -77.4667 360° North 165 190 1,900 -600 Descending Potomac TRACON
Thu 05:31:07 PM 38.9000 -77.4667 360° North 142 163 1,200 -700 Descending Potomac TRACON

Login

Don't have an account? Register now (free) for customized features, flight alerts, and more!